• Join FlightAware (Why Join?)
  • Login
  • US Flag 
02:44AM EDT


 

Airport Tracker/Info


-or-


 

Live Flight TrackerFlight Track Log ✈ MAS2746 ✈ 21-Jul-2014 ✈ WMKK / KUL - WBGB / BTU

Flight Track Log - Related Links

Times and Time Zones

All times are in EDT time to prevent confusion due to time zone crossing. See the MAS2746 flight status page for this flight to view local times or setup timezone preferences in your user account.

Time Position Orientation Groundspeed Altitude Reporting Facility
EDT Latitude Longitude Course Direction KTS MPH feet Rate Location/Type
04:43AM 3.1368 102.4775 75° East 434 499 17,900  Level FlightAware ADS-B (WMSA / SZB)
04:46AM 3.2443 102.8897 75° East 456 525 21,500 1,140 Climbing FlightAware ADS-B (WMSA / SZB)
04:47AM 3.2607 102.9524 75° East 453 521 22,600 2,340 Climbing FlightAware ADS-B (WMSA / SZB)
04:47AM 3.2777 103.0177 75° East 443 510 24,000 2,400 Climbing FlightAware ADS-B (WMSA / SZB)
04:48AM 3.2952 103.0851 75° East 433 498 25,300 960 Climbing FlightAware ADS-B (WMSA / SZB)
04:50AM 3.3684 103.3666 75° East 436 502 27,000 480 Climbing FlightAware ADS-B (WSAT / TGA)
04:51AM 3.2909 103.4301 91° East  Level Estimated
04:51AM 3.3696 103.4722 105° East 435 501 27,000  Level FlightAware ADS-B (WMSA / SZB)
04:52AM 3.3377 103.5879 106° East 434 499 27,000  Level FlightAware ADS-B (WMSA / SZB)
04:55AM 3.3321 103.8939 91° East  Level Estimated
04:56AM 3.3299 104.0171 91° East  Level Estimated
04:57AM 3.3276 104.1403 91° East  Level Estimated
04:58AM 3.3253 104.2635 91° East  Level Estimated
04:59AM 3.3230 104.3867 91° East  Level Estimated
05:00AM 3.3207 104.5099 91° East  Level Estimated
05:01AM 3.3184 104.6331 91° East  Level Estimated
05:02AM 3.3160 104.7563 91° East  Level Estimated
05:03AM 3.3136 104.8795 91° East  Level Estimated
05:04AM 3.3113 105.0028 91° East  Level Estimated
05:05AM 3.3089 105.1260 91° East  Level Estimated
05:06AM 3.3064 105.2492 91° East  Level Estimated
05:07AM 3.3045 105.3468 91° East  Level Estimated
05:08AM 3.3026 105.4444 91° East  Level Estimated
05:09AM 3.3006 105.5420 91° East  Level Estimated
05:10AM 3.2987 105.6396 91° East  Level Estimated
05:11AM 3.2967 105.7372 91° East  Level Estimated
05:12AM 3.2948 105.8348 91° East  Level Estimated
05:13AM 3.2928 105.9324 91° East  Level Estimated
05:14AM 3.2908 106.0300 91° East  Level Estimated
05:15AM 3.2888 106.1276 91° East  Level Estimated
05:16AM 3.2868 106.2252 91° East  Level Estimated
05:17AM 3.2848 106.3228 91° East  Level Estimated
05:18AM 3.2827 106.4204 91° East  Level Estimated
05:19AM 3.2807 106.5181 91° East  Level Estimated
05:20AM 3.2787 106.6156 91° East  Level Estimated
05:21AM 3.2766 106.7132 91° East  Level Estimated
05:22AM 3.2745 106.8109 91° East  Level Estimated
05:23AM 3.2724 106.9085 91° East  Level Estimated
05:24AM 3.2704 107.0061 91° East  Level Estimated
05:25AM 3.2683 107.1037 91° East  Level Estimated
05:26AM 3.2662 107.2013 91° East  Level Estimated
05:27AM 3.2641 107.2989 91° East  Level Estimated
05:28AM 3.2619 107.3965 91° East  Level Estimated
05:29AM 3.2598 107.4941 91° East  Level Estimated
05:30AM 3.2577 107.5917 91° East  Level Estimated
05:31AM 3.2555 107.6893 91° East  Level Estimated
05:32AM 3.2534 107.7868 91° East  Level Estimated
05:33AM 3.2512 107.8845 91° East  Level Estimated
05:34AM 3.2490 107.9820 91° East  Level Estimated
05:35AM 3.2468 108.0797 91° East  Level Estimated
05:36AM 3.2446 108.1772 91° East  Level Estimated
05:37AM 3.2424 108.2748 91° East  Level Estimated
05:38AM 3.2402 108.3724 91° East  Level Estimated
05:39AM 3.2380 108.4700 91° East  Level Estimated
05:40AM 3.2357 108.5676 91° East  Level Estimated
05:41AM 3.2335 108.6652 91° East  Level Estimated
05:42AM 3.2312 108.7628 91° East  Level Estimated
05:43AM 3.2290 108.8604 91° East  Level Estimated
05:44AM 3.2267 108.9580 91° East  Level Estimated
05:45AM 3.2244 109.0556 91° East  Level Estimated
05:46AM 3.2221 109.1532 91° East  Level Estimated
05:47AM 3.2198 109.2508 91° East  Level Estimated
05:48AM 3.2175 109.3484 91° East  Level Estimated
05:49AM 3.2152 109.4460 91° East  Level Estimated
05:50AM 3.2129 109.5435 91° East  Level Estimated
05:51AM 3.2105 109.6411 91° East  Level Estimated
05:52AM 3.2082 109.7387 91° East  Level Estimated
05:53AM 3.2058 109.8363 91° East  Level Estimated
05:54AM 3.2034 109.9339 91° East  Level Estimated
05:55AM 3.2011 110.0315 91° East  Level Estimated
05:56AM 3.1987 110.1291 91° East  Level Estimated
05:57AM 3.1963 110.2267 91° East  Level Estimated
05:58AM 3.1939 110.3242 91° East  Level Estimated
05:59AM 3.1915 110.4218 91° East  Level Estimated
06:00AM 3.1890 110.5194 91° East  Level Estimated
06:01AM 3.1866 110.6170 91° East  Level Estimated
06:02AM 3.1842 110.7146 91° East  Level Estimated
06:03AM 3.1817 110.8122 91° East  Level Estimated
06:04AM 3.1793 110.9098 91° East  Level Estimated
06:05AM 3.1768 111.0073 91° East  Level Estimated
06:06AM 3.1743 111.1049 91° East  Level Estimated
06:07AM 3.1718 111.2025 91° East  Level Estimated
06:08AM 3.1693 111.3001 91° East  Level Estimated
06:09AM 3.1668 111.3977 91° East  Level Estimated
06:10AM 3.1643 111.4953 91° East  Level Estimated
06:11AM 3.1618 111.5928 91° East  Level Estimated
06:12AM 3.1593 111.6904 91° East  Level Estimated
06:13AM 3.1567 111.7880 91° East  Level Estimated
06:14AM 3.1542 111.8856 91° East  Level Estimated
06:15AM 3.1516 111.9832 92° East  Level Estimated
06:16AM 3.1490 112.0807 92° East  Level Estimated
06:17AM 3.1465 112.1783 92° East  Level Estimated
06:18AM 3.1439 112.2759 92° East  Level Estimated
06:19AM 3.1413 112.3735 92° East  Level Estimated
06:20AM 3.1387 112.4710 92° East  Level Estimated
06:21AM 3.1361 112.5686 92° East  Level Estimated
06:22AM 3.1335 112.6662 92° East  Level Estimated
06:23AM 3.1308 112.7638 92° East  Level Estimated
06:24AM 3.1282 112.8614 92° East  Level Estimated
06:25AM 3.1255 112.9589 92° East  Level Estimated
06:26AM 3.1239 113.0205 92° East  Level Estimated
06:27AM 3.1239 113.0205 North  Level Estimated
06:28AM 3.1239 113.0205 North  Level Estimated
06:29AM 3.1239 113.0205 North  Level Estimated
06:30AM 3.1239 113.0205 North  Level Estimated
06:31AM 3.1239 113.0205 North  Level Estimated
06:32AM 3.1239 113.0205 North  Level Estimated
06:33AM 3.1239 113.0205 North  Level Estimated
06:34AM 3.1239 113.0205 North  Level Estimated